Time;durP1;ratioP1;P1;durP2;ratioP2;P2;SDS_P1;SDS_P2;PMS_P1;PMS_P2;Temp;Humidity;BMP_temperature;BMP_pressure;BME280_temperature;BME280_humidity;BME280_pressure;Samples;Min_cycle;Max_cycle;Signal;HPM_P1;HPM_P2
2021/10/06 00:00:08;;;;;;;3.13;1.10;;;;;;;9.90;83.31;100687.09;5012667;28;20025;-66
2021/10/06 00:02:33;;;;;;;3.88;1.75;;;;;;;9.81;84.32;100690.69;5030487;28;20171;-66
2021/10/06 00:04:59;;;;;;;3.60;1.50;;;;;;;9.75;84.99;100696.59;5030346;28;20108;-67
2021/10/06 00:07:24;;;;;;;7.20;1.40;;;;;;;9.73;85.46;100707.38;5030526;28;20119;-67
2021/10/06 00:09:49;;;;;;;7.73;1.37;;;;;;;9.71;85.20;100708.53;5030395;28;20117;-67
2021/10/06 00:12:15;;;;;;;3.87;1.10;;;;;;;9.70;85.42;100709.50;5030416;28;20048;-68
2021/10/06 00:14:40;;;;;;;5.70;1.97;;;;;;;9.66;85.51;100724.09;5030633;28;20518;-67
2021/10/06 00:17:05;;;;;;;3.30;1.00;;;;;;;9.62;85.39;100710.25;5030406;28;20079;-67
2021/10/06 00:19:31;;;;;;;9.80;1.93;;;;;;;9.55;85.29;100725.13;5030265;28;20056;-67
2021/10/06 00:21:57;;;;;;;6.33;3.50;;;;;;;9.50;85.78;100708.78;5030431;28;20026;-66
2021/10/06 00:24:23;;;;;;;1.85;0.80;;;;;;;9.46;85.46;100708.22;5029942;28;20081;-67
2021/10/06 00:26:49;;;;;;;3.22;1.00;;;;;;;9.39;85.72;100700.00;5030180;28;20127;-67
2021/10/06 00:29:14;;;;;;;1.93;0.83;;;;;;;9.38;86.12;100703.63;5030243;28;20485;-69
2021/10/06 00:31:39;;;;;;;4.97;1.13;;;;;;;9.35;86.29;100703.94;5030180;28;20026;-68
2021/10/06 00:34:05;;;;;;;2.90;1.10;;;;;;;9.34;86.45;100710.25;5030189;28;20045;-68
2021/10/06 00:36:30;;;;;;;3.80;1.03;;;;;;;9.35;86.66;100719.03;5012095;28;20280;-68
2021/10/06 00:38:56;;;;;;;3.83;1.10;;;;;;;9.37;86.74;100709.94;5030307;28;20025;-69
2021/10/06 00:41:21;;;;;;;2.93;1.20;;;;;;;9.37;86.11;100720.56;5030116;28;20531;-68
2021/10/06 00:43:46;;;;;;;4.73;1.00;;;;;;;9.37;85.10;100733.03;5029934;28;20476;-67
2021/10/06 00:46:12;;;;;;;1.50;1.33;;;;;;;9.36;84.37;100739.34;5030196;28;20026;-67
2021/10/06 00:48:37;;;;;;;2.93;0.83;;;;;;;9.33;83.48;100739.66;5030399;28;20424;-67
2021/10/06 00:51:02;;;;;;;3.07;1.37;;;;;;;9.33;84.10;100736.97;5033807;28;20484;-68
2021/10/06 00:53:28;;;;;;;2.20;0.93;;;;;;;9.26;84.56;100742.88;5032568;28;20032;-68
2021/10/06 00:55:54;;;;;;;5.57;1.02;;;;;;;9.27;84.43;100749.03;5033765;28;20033;-67
2021/10/06 00:58:19;;;;;;;;;;;;;;;9.26;83.65;100750.03;5034160;28;20037;-67
2021/10/06 01:00:45;;;;;;;1.80;0.73;;;;;;;9.25;84.60;100759.81;5033631;28;20383;-67
2021/10/06 01:03:12;;;;;;;3.47;1.15;;;;;;;9.24;84.55;100760.78;5033605;28;20032;-67
2021/10/06 01:05:37;;;;;;;1.55;0.70;;;;;;;9.22;84.31;100756.59;5033274;28;20025;-67
2021/10/06 01:08:04;;;;;;;1.73;0.90;;;;;;;9.21;84.58;100754.94;5033555;28;20066;-67
2021/10/06 01:10:30;;;;;;;1.98;0.82;;;;;;;9.19;84.79;100760.38;5033487;28;20051;-66
2021/10/06 01:12:56;;;;;;;3.33;1.10;;;;;;;9.17;84.97;100764.19;5033417;28;20029;-66
2021/10/06 01:15:21;;;;;;;3.83;1.13;;;;;;;9.16;85.30;100758.03;5033458;28;20022;-67
2021/10/06 01:17:47;;;;;;;2.13;0.98;;;;;;;9.16;85.20;100766.00;5033280;28;20025;-67
2021/10/06 01:20:12;;;;;;;3.73;1.10;;;;;;;9.22;84.33;100753.94;5032798;28;20120;-67
2021/10/06 01:22:38;;;;;;;2.65;0.88;;;;;;;9.21;84.43;100761.09;5032579;28;20064;-67
2021/10/06 01:25:06;;;;;;;3.05;0.90;;;;;;;9.17;85.04;100762.34;5032495;28;20098;-67
2021/10/06 01:27:31;;;;;;;1.98;0.85;;;;;;;9.16;85.22;100770.47;5032341;28;20037;-67
2021/10/06 01:29:56;;;;;;;4.40;0.97;;;;;;;9.14;85.22;100767.97;5033204;28;20040;-67
2021/10/06 01:32:21;;;;;;;3.43;1.00;;;;;;;9.09;85.30;100757.75;5032912;28;20030;-67
2021/10/06 01:34:59;;;;;;;5.73;1.20;;;;;;;9.07;85.43;100761.53;5033094;28;20034;-67
2021/10/06 01:37:25;;;;;;;3.60;1.00;;;;;;;9.05;85.77;100753.72;5032854;28;20037;-67
2021/10/06 01:39:50;;;;;;;;;;;;;;;9.06;85.89;100758.06;5033492;28;20021;-67
2021/10/06 01:42:16;;;;;;;5.17;0.80;;;;;;;9.08;85.54;100755.25;5032797;28;20430;-67
2021/10/06 01:44:41;;;;;;;4.40;1.00;;;;;;;9.08;85.61;100748.09;5032697;28;20039;-67
2021/10/06 01:47:07;;;;;;;3.13;1.00;;;;;;;9.13;85.65;100747.69;5032915;28;20043;-66
2021/10/06 01:49:32;;;;;;;3.85;1.00;;;;;;;9.15;85.41;100759.00;5032867;28;20029;-67
2021/10/06 01:51:57;;;;;;;5.73;1.00;;;;;;;9.13;85.18;100755.66;5032745;28;20051;-67
2021/10/06 01:54:23;;;;;;;3.40;0.90;;;;;;;9.16;84.71;100762.50;5032570;28;20608;-67
2021/10/06 01:56:48;;;;;;;2.47;1.00;;;;;;;9.18;85.00;100771.16;5032515;28;20342;-67
2021/10/06 01:59:13;;;;;;;5.53;1.10;;;;;;;9.17;85.42;100773.00;5032526;28;20280;-67
2021/10/06 02:01:39;;;;;;;2.97;0.90;;;;;;;9.11;85.35;100762.94;5032355;28;20660;-67
2021/10/06 02:04:04;;;;;;;1.80;0.70;;;;;;;9.04;86.09;100767.97;5032608;28;20404;-67
2021/10/06 02:06:30;;;;;;;3.80;0.90;;;;;;;8.98;85.77;100768.53;5032507;28;20477;-68
2021/10/06 02:08:55;;;;;;;1.80;0.60;;;;;;;8.93;85.78;100766.34;5032554;28;20280;-67
2021/10/06 02:11:21;;;;;;;3.17;0.70;;;;;;;8.92;86.21;100767.31;5032395;28;20045;-68
2021/10/06 02:13:46;;;;;;;2.10;0.80;;;;;;;8.89;86.35;100766.75;5032356;28;20022;-68
2021/10/06 02:16:11;;;;;;;8.70;1.43;;;;;;;8.87;85.88;100760.75;5032130;28;20104;-67
2021/10/06 02:18:37;;;;;;;3.33;0.90;;;;;;;8.83;86.53;100762.00;5032376;28;20382;-67
2021/10/06 02:21:03;;;;;;;5.77;0.97;;;;;;;8.80;86.43;100763.13;5032169;28;20064;-68
2021/10/06 02:23:28;;;;;;;2.72;1.00;;;;;;;8.78;86.82;100757.13;5032071;28;20056;-67
2021/10/06 02:25:53;;;;;;;1.07;0.57;;;;;;;8.74;86.84;100753.91;5032079;28;20488;-67
2021/10/06 02:28:19;;;;;;;1.97;0.90;;;;;;;8.72;86.57;100755.88;5032117;28;20026;-69
2021/10/06 02:30:44;;;;;;;4.40;0.80;;;;;;;8.75;86.94;100760.06;5032524;28;20055;-67
2021/10/06 02:33:10;;;;;;;6.40;1.30;;;;;;;8.75;87.01;100766.22;5031998;28;20421;-68
2021/10/06 02:35:35;;;;;;;6.03;1.05;;;;;;;8.74;87.12;100766.34;5032136;28;20481;-66
2021/10/06 02:38:01;;;;;;;4.73;1.40;;;;;;;8.78;87.11;100765.91;5031840;28;20075;-67
2021/10/06 02:40:26;;;;;;;6.83;1.47;;;;;;;8.75;87.59;100763.56;5031998;28;20492;-68
2021/10/06 02:42:52;;;;;;;2.03;0.70;;;;;;;8.77;87.37;100763.41;5031842;28;20381;-67
2021/10/06 02:45:19;;;;;;;5.15;1.25;;;;;;;8.77;87.62;100764.25;5013948;28;20272;-68
2021/10/06 02:47:46;;;;;;;3.93;0.93;;;;;;;8.78;87.38;100771.22;5031809;28;20033;-68
2021/10/06 02:50:14;;;;;;;3.97;0.90;;;;;;;8.77;87.30;100768.72;5031526;28;20096;-67
2021/10/06 02:52:39;;;;;;;3.42;0.70;;;;;;;8.73;87.05;100769.97;5031594;28;20445;-67
2021/10/06 02:55:06;;;;;;;4.33;0.73;;;;;;;8.70;87.33;100762.31;5031484;28;20104;-68
2021/10/06 02:57:33;;;;;;;2.27;0.80;;;;;;;8.68;87.20;100764.25;5031432;28;20072;-67
2021/10/06 02:59:59;;;;;;;3.58;0.75;;;;;;;8.67;87.41;100760.75;5031497;28;20029;-67
2021/10/06 03:02:25;;;;;;;6.63;1.45;;;;;;;8.65;87.37;100757.41;5031645;28;20042;-68
2021/10/06 03:04:50;;;;;;;5.03;0.80;;;;;;;8.64;87.56;100764.53;5031429;28;20470;-67
2021/10/06 03:07:16;;;;;;;1.57;1.07;;;;;;;8.64;87.83;100758.38;5031301;28;20109;-67
2021/10/06 03:09:42;;;;;;;1.38;0.65;;;;;;;8.63;87.92;100760.19;5031148;28;20060;-68
2021/10/06 03:12:07;;;;;;;3.95;0.88;;;;;;;8.60;87.98;100747.22;5030710;28;20029;-68
2021/10/06 03:14:33;;;;;;;3.28;0.90;;;;;;;8.57;87.76;100757.28;5031184;28;20026;-68
2021/10/06 03:16:58;;;;;;;4.60;1.37;;;;;;;8.57;88.00;100751.97;5031211;28;20029;-68
2021/10/06 03:19:24;;;;;;;5.10;0.80;;;;;;;8.54;87.96;100742.44;5031182;28;20029;-69
2021/10/06 03:21:49;;;;;;;4.83;0.93;;;;;;;8.51;87.90;100744.53;5031264;28;20469;-67
2021/10/06 03:24:15;;;;;;;1.80;0.80;;;;;;;8.50;88.01;100734.91;5031020;22;20755;-67
2021/10/06 03:26:40;;;;;;;0.75;0.65;;;;;;;8.47;88.02;100750.16;4991594;28;20026;-67
2021/10/06 03:29:05;;;;;;;1.87;0.70;;;;;;;8.47;88.29;100744.00;4991505;28;20034;-69
2021/10/06 03:31:31;;;;;;;2.95;0.95;;;;;;;8.44;88.29;100739.78;4991506;28;20022;-67
2021/10/06 03:33:58;;;;;;;2.27;0.70;;;;;;;8.44;88.19;100734.47;4991783;28;20052;-67
2021/10/06 03:36:24;;;;;;;3.50;1.00;;;;;;;8.47;88.22;100741.34;4991498;28;20101;-67
2021/10/06 03:38:49;;;;;;;4.05;1.08;;;;;;;8.48;88.38;100740.34;4991109;28;20615;-67
2021/10/06 03:41:15;;;;;;;3.08;0.77;;;;;;;8.46;88.45;100737.00;4991397;28;20101;-67
2021/10/06 03:43:40;;;;;;;9.10;1.00;;;;;;;8.47;88.31;100747.50;4991354;28;20109;-66
2021/10/06 03:46:05;;;;;;;3.83;1.37;;;;;;;8.44;88.39;100744.25;4991367;28;20030;-69
2021/10/06 03:48:30;;;;;;;3.20;0.97;;;;;;;8.42;88.53;100743.56;4991206;28;20026;-66
2021/10/06 03:50:56;;;;;;;5.17;1.13;;;;;;;8.44;88.66;100736.28;4991348;28;20088;-65
2021/10/06 03:53:21;;;;;;;7.03;1.33;;;;;;;8.44;88.74;100736.28;4991265;28;20034;-66
2021/10/06 03:55:46;;;;;;;6.93;1.20;;;;;;;8.46;88.80;100739.66;4991087;28;20026;-68
2021/10/06 03:58:12;;;;;;;3.53;1.03;;;;;;;8.50;88.79;100738.41;4991250;28;20041;-66
2021/10/06 04:00:37;;;;;;;3.30;0.93;;;;;;;8.56;88.63;100740.50;4991179;28;20069;-66
2021/10/06 04:03:10;;;;;;;6.65;1.98;;;;;;;8.55;88.80;100736.16;4991094;28;20022;-66
2021/10/06 04:05:36;;;;;;;4.37;0.97;;;;;;;8.58;89.10;100724.44;4991116;28;20105;-68
2021/10/06 04:08:02;;;;;;;5.38;1.30;;;;;;;8.59;88.83;100718.13;4991130;28;20130;-67
2021/10/06 04:10:27;;;;;;;4.43;1.27;;;;;;;8.61;89.02;100716.16;4991091;28;20029;-67
2021/10/06 04:12:52;;;;;;;4.43;1.30;;;;;;;8.64;89.12;100718.53;4991108;28;20497;-66
2021/10/06 04:15:18;;;;;;;5.83;1.60;;;;;;;8.67;89.27;100722.72;4973198;28;20038;-66
2021/10/06 04:17:44;;;;;;;3.00;1.13;;;;;;;8.73;89.24;100732.78;4990326;28;20054;-66
2021/10/06 04:20:10;;;;;;;5.93;1.67;;;;;;;8.78;89.30;100722.56;4990316;28;20507;-67
2021/10/06 04:22:35;;;;;;;6.95;1.67;;;;;;;8.87;89.64;100719.06;4990433;28;20061;-67
2021/10/06 04:25:00;;;;;;;4.87;1.73;;;;;;;8.96;89.56;100728.00;4992231;28;20042;-67
2021/10/06 04:27:25;;;;;;;7.90;2.37;;;;;;;9.10;89.71;100708.06;4994687;28;20541;-66
2021/10/06 04:29:51;;;;;;;5.40;1.70;;;;;;;9.21;89.64;100721.19;4994655;28;20427;-67
2021/10/06 04:32:16;;;;;;;4.80;1.30;;;;;;;9.24;89.61;100720.91;4994769;28;20041;-67
2021/10/06 04:34:41;;;;;;;6.30;1.40;;;;;;;9.28;89.65;100717.00;4994464;28;20575;-67
2021/10/06 04:37:07;;;;;;;4.83;1.50;;;;;;;9.35;89.71;100716.38;4994724;28;20061;-66
2021/10/06 04:39:32;;;;;;;11.20;1.70;;;;;;;9.42;89.50;100725.47;4994728;28;20030;-69
2021/10/06 04:41:58;;;;;;;10.05;1.45;;;;;;;9.45;89.71;100715.34;4994845;28;20121;-67
2021/10/06 04:44:23;;;;;;;11.57;2.40;;;;;;;9.50;89.41;100712.25;4994543;28;20030;-66
2021/10/06 04:46:49;;;;;;;10.25;1.48;;;;;;;9.52;89.14;100723.59;4994166;28;20038;-66
2021/10/06 04:49:16;;;;;;;4.85;1.25;;;;;;;9.51;88.99;100726.38;4994393;28;20034;-67
2021/10/06 04:51:41;;;;;;;5.03;1.40;;;;;;;9.53;88.86;100737.72;4994572;28;20113;-68
2021/10/06 04:54:07;;;;;;;5.80;1.60;;;;;;;9.57;88.75;100733.78;4994277;28;20153;-67
2021/10/06 04:56:32;;;;;;;7.20;1.73;;;;;;;9.59;88.94;100748.63;4994171;28;20045;-67
2021/10/06 04:58:58;;;;;;;7.53;1.63;;;;;;;9.67;88.75;100744.41;4994472;28;20118;-68
2021/10/06 05:01:23;;;;;;;6.30;1.80;;;;;;;9.71;88.72;100748.44;4994354;28;20280;-68
2021/10/06 05:03:48;;;;;;;6.97;1.57;;;;;;;9.77;88.42;100747.81;4994407;28;20570;-68
2021/10/06 05:06:14;;;;;;;10.23;2.10;;;;;;;9.82;87.95;100758.03;4994267;28;20022;-68
2021/10/06 05:08:39;;;;;;;6.87;1.47;;;;;;;9.84;87.73;100761.41;4994249;28;20112;-68
2021/10/06 05:11:04;;;;;;;4.37;1.30;;;;;;;9.82;87.99;100766.84;4993989;28;20041;-68
2021/10/06 05:13:30;;;;;;;7.67;2.17;;;;;;;9.85;87.95;100765.72;4994255;28;20065;-67
2021/10/06 05:15:55;;;;;;;8.57;1.77;;;;;;;9.90;87.52;100766.97;4976653;28;20465;-68
2021/10/06 05:18:20;;;;;;;6.10;2.10;;;;;;;9.91;88.19;100771.28;4994059;28;20027;-68
2021/10/06 05:20:46;;;;;;;5.83;1.60;;;;;;;10.00;87.33;100784.69;4993917;28;20068;-68
2021/10/06 05:23:11;;;;;;;12.30;2.40;;;;;;;9.94;87.51;100772.81;4993789;28;20481;-67
2021/10/06 05:25:36;;;;;;;10.93;1.77;;;;;;;9.97;87.37;100783.19;4993338;28;20050;-68
2021/10/06 05:28:03;;;;;;;9.67;2.30;;;;;;;10.00;86.96;100788.19;4993754;28;20058;-67
2021/10/06 05:30:28;;;;;;;;;;;;;;;9.97;86.75;100786.66;4994385;28;20199;-66
2021/10/06 05:32:53;;;;;;;7.95;2.67;;;;;;;9.94;86.62;100800.28;4993620;28;19981;-71
2021/10/06 05:35:19;;;;;;;5.53;1.60;;;;;;;9.90;86.96;100795.38;4991836;28;20130;-65
2021/10/06 05:37:46;;;;;;;10.57;1.88;;;;;;;9.90;86.88;100785.59;4993422;28;20030;-65
2021/10/06 05:40:12;;;;;;;5.65;2.47;;;;;;;9.85;87.21;100787.88;4993493;28;20030;-65
2021/10/06 05:42:38;;;;;;;9.80;2.33;;;;;;;9.86;87.40;100802.00;4993393;28;20359;-67
2021/10/06 05:45:04;;;;;;;12.30;3.30;;;;;;;9.83;87.40;100805.78;4993689;28;20057;-67
2021/10/06 05:47:29;;;;;;;7.22;2.15;;;;;;;9.81;87.60;100799.78;4993447;28;20026;-66
2021/10/06 05:49:55;;;;;;;6.03;1.93;;;;;;;9.81;87.88;100805.13;4993524;28;20022;-66
2021/10/06 05:52:23;;;;;;;6.97;1.73;;;;;;;9.84;87.63;100806.66;4993214;28;20427;-65
2021/10/06 05:54:49;;;;;;;5.55;1.83;;;;;;;9.83;87.79;100834.25;4992983;28;20045;-66
2021/10/06 05:57:14;;;;;;;6.00;2.05;;;;;;;9.82;87.80;100816.59;4993232;28;20066;-65
2021/10/06 05:59:39;;;;;;;3.10;1.65;;;;;;;9.82;87.81;100812.09;4993032;28;20469;-66
2021/10/06 06:02:06;;;;;;;8.60;1.87;;;;;;;9.83;87.76;100821.75;4993209;28;20044;-65
2021/10/06 06:04:32;;;;;;;6.10;1.77;;;;;;;9.81;87.78;100826.41;4993084;28;20104;-69
2021/10/06 06:06:57;;;;;;;9.13;2.00;;;;;;;9.82;87.74;100840.53;4993198;28;20447;-65
2021/10/06 06:09:22;;;;;;;10.47;1.90;;;;;;;9.83;87.89;100840.38;4993218;28;20251;-65
2021/10/06 06:11:49;;;;;;;6.73;2.13;;;;;;;9.87;87.96;100841.78;4992943;28;20684;-67
2021/10/06 06:14:15;;;;;;;7.43;1.70;;;;;;;9.89;87.73;100858.44;4992825;28;20364;-69
2021/10/06 06:16:40;;;;;;;6.63;1.60;;;;;;;9.86;87.53;100856.09;4992863;28;20105;-67
2021/10/06 06:19:06;;;;;;;7.50;1.93;;;;;;;9.90;87.24;100852.16;4992721;28;20038;-65
2021/10/06 06:21:31;;;;;;;8.23;1.70;;;;;;;9.89;87.38;100850.47;4992827;28;20277;-66
2021/10/06 06:23:56;;;;;;;3.80;1.27;;;;;;;9.83;87.78;100858.19;4992409;28;20034;-65
2021/10/06 06:26:22;;;;;;;2.20;1.40;;;;;;;9.84;87.75;100858.03;4992317;28;20453;-65
2021/10/06 06:28:47;;;;;;;10.20;2.03;;;;;;;9.80;88.08;100856.66;4992474;28;20046;-66
2021/10/06 06:31:13;;;;;;;3.67;1.50;;;;;;;9.82;88.07;100859.16;4992239;28;20110;-66
2021/10/06 06:33:39;;;;;;;9.32;1.95;;;;;;;9.80;88.40;100875.28;4992305;28;20261;-66
2021/10/06 06:36:05;;;;;;;6.70;1.63;;;;;;;9.85;88.13;100869.53;4992288;28;20022;-66
2021/10/06 06:38:31;;;;;;;9.30;1.88;;;;;;;9.88;88.08;100878.06;4992010;28;20057;-66
2021/10/06 06:40:56;;;;;;;7.53;1.90;;;;;;;9.95;87.88;100880.97;4992432;28;20459;-65
2021/10/06 06:43:23;;;;;;;4.67;1.53;;;;;;;9.95;88.11;100875.66;4992066;28;20054;-66
2021/10/06 06:45:49;;;;;;;7.82;1.73;;;;;;;10.03;87.75;100882.91;4991809;28;20035;-67
2021/10/06 06:48:14;;;;;;;7.97;2.05;;;;;;;10.08;88.11;100877.97;4991427;28;20485;-66
2021/10/06 06:50:40;;;;;;;4.57;1.63;;;;;;;10.19;87.70;100887.59;4991737;28;20030;-66
2021/10/06 06:53:05;;;;;;;4.65;1.55;;;;;;;10.20;87.92;100886.63;4991829;28;20042;-67
2021/10/06 06:55:31;;;;;;;6.50;1.60;;;;;;;10.19;88.07;100893.78;4991638;28;20069;-67
2021/10/06 06:57:56;;;;;;;4.47;1.60;;;;;;;10.20;88.25;100900.75;4991893;28;20045;-66
2021/10/06 07:00:22;;;;;;;5.67;1.43;;;;;;;10.20;88.34;100899.94;4991630;28;20062;-66
2021/10/06 07:02:47;;;;;;;9.98;1.90;;;;;;;10.20;88.25;100908.75;4991618;28;20033;-68
2021/10/06 07:05:12;;;;;;;7.00;1.83;;;;;;;10.19;88.26;100906.22;4991672;28;20030;-66
2021/10/06 07:07:38;;;;;;;8.68;1.98;;;;;;;10.18;88.44;100908.06;4991914;28;20068;-66
2021/10/06 07:10:04;;;;;;;9.82;2.20;;;;;;;10.23;88.84;100915.59;4991435;28;20033;-66
2021/10/06 07:12:30;;;;;;;;;;;;;;;10.27;88.87;100927.66;4992062;28;20535;-67
2021/10/06 07:14:55;;;;;;;5.18;1.85;;;;;;;10.22;88.82;100925.44;4991994;28;20052;-66
2021/10/06 07:17:21;;;;;;;7.10;1.90;;;;;;;10.22;88.25;100936.09;4991350;28;20030;-65
2021/10/06 07:19:47;;;;;;;5.65;1.40;;;;;;;10.13;86.81;100961.75;4991566;28;20029;-67
2021/10/06 07:22:12;;;;;;;3.67;1.20;;;;;;;9.91;85.75;100959.44;4991774;28;20489;-67
2021/10/06 07:24:39;;;;;;;3.38;1.20;;;;;;;9.63;85.49;100973.50;5020333;23;20193;-66
2021/10/06 07:27:05;;;;;;;2.60;0.75;;;;;;;9.40;85.28;100956.16;5031257;28;20057;-69
2021/10/06 07:29:31;;;;;;;6.13;1.20;;;;;;;9.20;84.99;100956.16;5031073;28;20025;-69
2021/10/06 07:31:56;;;;;;;1.55;0.77;;;;;;;9.08;85.23;100949.31;5031198;28;20070;-69
2021/10/06 07:34:21;;;;;;;2.47;0.73;;;;;;;9.01;86.38;100959.66;5030961;28;20036;-69
2021/10/06 07:36:47;;;;;;;2.70;0.70;;;;;;;8.95;87.17;100963.69;5030761;28;20037;-68
2021/10/06 07:39:12;;;;;;;3.15;1.15;;;;;;;9.03;87.99;100957.69;5030449;28;20299;-66
2021/10/06 07:41:38;;;;;;;3.63;1.33;;;;;;;9.09;88.87;100966.94;5030868;28;20026;-68
2021/10/06 07:44:03;;;;;;;5.15;1.95;;;;;;;9.32;89.63;100964.00;5030792;28;20033;-68
2021/10/06 07:46:29;;;;;;;8.70;2.53;;;;;;;9.55;90.08;100967.22;5031022;28;20029;-65
2021/10/06 07:48:54;;;;;;;11.32;3.38;;;;;;;9.74;90.26;100964.50;5029981;28;20044;-70
2021/10/06 07:51:21;;;;;;;6.67;2.83;;;;;;;9.89;90.15;100978.22;5013017;28;20029;-71
2021/10/06 07:53:47;;;;;;;10.25;2.90;;;;;;;9.96;90.19;100992.63;5012989;28;20292;-67
2021/10/06 07:56:12;;;;;;;7.72;2.30;;;;;;;10.10;90.00;100970.03;5030182;28;20469;-71
2021/10/06 07:58:38;;;;;;;11.10;2.55;;;;;;;10.17;89.59;100946.34;5030342;28;20060;-67
2021/10/06 08:01:04;;;;;;;10.13;2.53;;;;;;;10.12;89.45;100978.75;5030719;28;20484;-67
2021/10/06 08:03:30;;;;;;;9.13;2.63;;;;;;;10.22;89.29;100992.00;5030898;28;20021;-66
2021/10/06 08:05:56;;;;;;;10.93;2.78;;;;;;;10.24;89.54;100998.03;5030649;28;20543;-71
2021/10/06 08:08:26;;;;;;;6.32;1.83;;;;;;;10.32;89.19;100991.13;5030648;28;20021;-68
2021/10/06 08:10:52;;;;;;;8.20;2.60;;;;;;;10.33;88.87;100993.66;5030549;28;20030;-69
2021/10/06 08:13:19;;;;;;;;;;;;;;;10.30;89.01;101001.94;5030934;28;20124;-70
2021/10/06 08:15:44;;;;;;;5.07;2.15;;;;;;;10.26;89.15;101011.22;5030186;28;19980;-70
2021/10/06 08:18:09;;;;;;;6.67;2.47;;;;;;;10.30;89.13;101018.75;5030219;28;20037;-67
2021/10/06 08:20:35;;;;;;;6.97;2.03;;;;;;;10.30;89.08;101005.44;5030293;28;20444;-62
2021/10/06 08:23:02;;;;;;;5.10;2.10;;;;;;;10.32;89.36;101015.94;5030244;28;20506;-63
2021/10/06 08:25:27;;;;;;;9.77;2.38;;;;;;;10.39;89.40;101014.41;5030203;28;20042;-67
2021/10/06 08:27:54;;;;;;;10.43;2.67;;;;;;;10.38;89.48;101022.56;5030382;28;20036;-70
2021/10/06 08:30:20;;;;;;;9.70;2.95;;;;;;;10.44;89.71;101048.59;5027244;28;20453;-68
2021/10/06 08:32:45;;;;;;;11.65;3.00;;;;;;;10.49;89.71;101038.34;5030397;28;20392;-68
2021/10/06 08:35:10;;;;;;;10.63;3.27;;;;;;;10.55;89.61;101043.09;5030349;28;20046;-68
2021/10/06 08:37:36;;;;;;;10.07;3.13;;;;;;;10.58;89.61;101031.31;5030253;28;20049;-73
2021/10/06 08:40:03;;;;;;;9.87;3.00;;;;;;;10.61;89.15;101037.19;5030318;28;20507;-71
2021/10/06 08:42:28;;;;;;;11.98;2.95;;;;;;;10.64;89.02;101038.72;5030218;28;20264;-67
2021/10/06 08:44:54;;;;;;;10.70;3.22;;;;;;;10.69;89.04;101043.59;5029947;28;20030;-68
2021/10/06 08:47:20;;;;;;;8.73;2.72;;;;;;;10.72;89.00;101065.47;5030155;28;20496;-67
2021/10/06 08:49:46;;;;;;;10.60;2.80;;;;;;;10.85;88.70;101067.81;5030095;28;20393;-67
2021/10/06 08:52:11;;;;;;;8.77;2.83;;;;;;;11.00;88.47;101068.13;5030232;28;20029;-63
2021/10/06 08:54:37;;;;;;;9.07;2.50;;;;;;;11.13;87.58;101062.47;5029831;28;20030;-62
2021/10/06 08:57:02;;;;;;;9.77;2.20;;;;;;;11.19;87.45;101087.69;5030073;28;20036;-63
2021/10/06 08:59:27;;;;;;;14.10;3.28;;;;;;;11.20;87.82;101095.56;5030184;28;20472;-66
2021/10/06 09:01:53;;;;;;;7.33;2.37;;;;;;;11.20;87.60;101103.56;5030221;28;20052;-70
2021/10/06 09:04:29;;;;;;;10.80;2.47;;;;;;;11.22;87.29;101101.56;5030064;28;20485;-64
2021/10/06 09:07:02;;;;;;;8.50;2.95;;;;;;;11.22;87.48;101096.22;5030281;28;20026;-67
2021/10/06 09:09:32;;;;;;;7.95;2.40;;;;;;;11.23;87.11;101110.44;5030211;28;20025;-73
2021/10/06 09:11:59;;;;;;;8.30;1.70;;;;;;;11.27;86.77;101117.97;5033671;28;20365;-72
2021/10/06 09:14:25;;;;;;;6.25;1.92;;;;;;;11.46;87.13;101127.69;5033812;28;20021;-70
2021/10/06 09:17:07;;;;;;;12.43;1.88;;;;;;;11.96;85.43;101130.88;5033441;28;20040;-70
2021/10/06 09:19:57;;;;;;;8.52;1.23;;;;;;;12.18;84.10;101134.91;5033713;28;20033;-66
2021/10/06 09:22:30;;;;;;;3.97;1.52;;;;;;;12.21;84.21;101144.44;5026164;28;20048;-68
2021/10/06 09:24:55;;;;;;;3.85;1.10;;;;;;;12.16;84.07;101157.41;5013592;28;20057;-70
2021/10/06 09:27:26;;;;;;;13.13;1.67;;;;;;;12.10;82.90;101157.03;5013958;28;20473;-72
2021/10/06 09:29:57;;;;;;;5.18;1.27;;;;;;;12.18;83.37;101166.13;5033079;28;20028;-71
2021/10/06 09:32:26;;;;;;;4.00;1.20;;;;;;;12.30;84.46;101175.56;5033446;28;20033;-70
2021/10/06 09:34:59;;;;;;;5.80;1.55;;;;;;;12.28;82.97;101177.56;5033340;28;20022;-70
2021/10/06 09:37:26;;;;;;;6.13;1.50;;;;;;;12.31;83.58;101176.44;5033524;28;20033;-70
2021/10/06 09:39:51;;;;;;;5.35;1.50;;;;;;;12.38;82.33;101172.94;5015684;28;20056;-73
2021/10/06 09:42:17;;;;;;;4.85;1.48;;;;;;;12.54;83.43;101182.09;5033466;28;20473;-69
2021/10/06 09:44:52;;;;;;;8.10;1.70;;;;;;;12.77;81.95;101182.44;5033119;28;20025;-69
2021/10/06 09:47:17;;;;;;;10.32;1.95;;;;;;;12.95;82.41;101182.38;5032866;28;20029;-69
2021/10/06 09:49:42;;;;;;;6.33;1.40;;;;;;;13.13;82.01;101198.34;5032938;28;20026;-70
2021/10/06 09:52:21;;;;;;;7.50;1.73;;;;;;;13.13;81.71;101198.34;5033112;28;20032;-72
2021/10/06 09:54:52;;;;;;;7.93;1.73;;;;;;;13.12;81.92;101194.84;5032857;28;20066;-71
2021/10/06 09:57:29;;;;;;;10.57;2.03;;;;;;;13.14;81.76;101201.88;5032823;28;20049;-69
2021/10/06 09:59:55;;;;;;;;;;;;;;;13.22;81.99;101202.72;5033233;28;20083;-72
2021/10/06 10:02:21;;;;;;;7.40;1.40;;;;;;;13.33;80.65;101214.16;5032559;28;20028;-73
2021/10/06 10:04:47;;;;;;;6.82;1.50;;;;;;;13.39;79.81;101216.22;5032681;28;20658;-74
2021/10/06 10:07:13;;;;;;;8.57;2.30;;;;;;;13.36;78.19;101221.88;5032839;28;20025;-68
2021/10/06 10:09:40;;;;;;;7.97;1.58;;;;;;;13.24;78.00;101229.34;5032600;28;20025;-72
2021/10/06 10:12:07;;;;;;;;;;;;;;;13.18;77.96;101241.50;5033398;28;20022;-71
2021/10/06 10:14:32;;;;;;;6.18;1.75;;;;;;;13.25;79.18;101234.53;5032505;28;19909;-72
2021/10/06 10:16:58;;;;;;;11.30;2.25;;;;;;;13.37;79.74;101237.81;5031417;28;20137;-72
2021/10/06 10:19:26;;;;;;;6.90;1.80;;;;;;;13.57;78.04;101248.28;5032653;28;20037;-72
2021/10/06 10:21:52;;;;;;;8.23;2.35;;;;;;;13.57;77.96;101257.13;5032406;28;20295;-72
2021/10/06 10:24:22;;;;;;;;;;;;;;;13.03;79.71;101275.22;5032655;28;20053;-70
2021/10/06 10:27:01;;;;;;;7.70;1.42;;;;;;;12.54;80.93;101276.53;5032288;28;20427;-69
2021/10/06 10:29:43;;;;;;;4.07;1.30;;;;;;;12.33;82.90;101284.84;5032185;28;20512;-69
2021/10/06 10:32:22;;;;;;;10.90;2.50;;;;;;;12.23;83.58;101282.22;5032146;28;20041;-76
2021/10/06 10:35:01;;;;;;;4.80;1.30;;;;;;;12.20;84.29;101287.88;5031120;28;20060;-72
2021/10/06 10:37:54;;;;;;;9.30;2.20;;;;;;;12.18;84.18;101292.53;5032194;28;20045;-71
2021/10/06 10:42:58;;;;;;;8.90;2.10;;;;;;;12.29;84.81;101304.81;5032265;28;20056;-67
2021/10/06 10:45:41;;;;;;;7.78;1.80;;;;;;;12.60;85.50;101313.31;5031979;28;20026;-69
2021/10/06 10:48:10;;;;;;;10.85;1.98;;;;;;;13.02;83.95;101319.03;5031634;28;20025;-70
2021/10/06 10:50:44;;;;;;;9.63;2.05;;;;;;;13.41;82.95;101324.81;5031676;28;20443;-64
2021/10/06 10:53:18;;;;;;;5.20;1.70;;;;;;;13.59;81.14;101318.56;5031678;28;20369;-66
2021/10/06 10:56:03;;;;;;;6.57;1.70;;;;;;;13.67;79.94;101325.78;5013637;28;20710;-68
2021/10/06 10:58:29;;;;;;;7.57;1.60;;;;;;;13.70;78.29;101326.31;5031750;28;20087;-65
2021/10/06 11:00:55;;;;;;;2.92;1.52;;;;;;;13.58;77.62;101343.69;5031693;28;20465;-71
2021/10/06 11:03:21;;;;;;;5.85;1.65;;;;;;;13.47;77.48;101334.06;5031400;28;20029;-71
2021/10/06 11:05:48;;;;;;;6.20;1.90;;;;;;;13.34;76.37;101342.47;5031675;28;20025;-75
2021/10/06 11:08:23;;;;;;;3.92;1.27;;;;;;;13.20;76.99;101361.81;5031568;28;20342;-70
2021/10/06 11:11:14;;;;;;;2.50;1.15;;;;;;;12.91;78.53;101361.06;5031571;28;20029;-69
2021/10/06 11:13:42;;;;;;;7.22;1.75;;;;;;;12.50;80.15;101365.19;5031396;28;20071;-72
2021/10/06 11:16:07;;;;;;;3.28;1.10;;;;;;;12.15;80.96;101372.13;5031395;28;20427;-73
2021/10/06 11:18:50;;;;;;;3.53;0.90;;;;;;;11.86;82.27;101373.06;5031268;28;20029;-74
2021/10/06 11:21:32;;;;;;;4.03;1.08;;;;;;;11.70;83.03;101373.69;5031127;28;20451;-74
2021/10/06 11:23:58;;;;;;;6.43;1.60;;;;;;;11.55;83.57;101390.19;5041852;23;20479;-70
2021/10/06 11:26:32;;;;;;;2.70;1.05;;;;;;;11.40;84.25;101389.81;5030415;28;20044;-74
2021/10/06 11:29:00;;;;;;;3.95;0.75;;;;;;;11.26;85.44;101396.41;5031138;28;20109;-71
2021/10/06 11:31:28;;;;;;;3.63;1.10;;;;;;;11.29;86.13;101389.94;5030992;28;20137;-74